Time;durP1;ratioP1;P1;durP2;ratioP2;P2;SDS_P1;SDS_P2;PMS_P1;PMS_P2;Temp;Humidity;BMP_temperature;BMP_pressure;BME280_temperature;BME280_humidity;BME280_pressure;Samples;Min_cycle;Max_cycle;Signal;HPM_P1;HPM_P2
2023/01/27 00:01:17;;;;;;;39.55;18.17;;;0.90;99.90;;;;;;5065251;28;20047;-53
2023/01/27 00:04:03;;;;;;;39.17;16.42;;;0.90;99.90;;;;;;5069771;28;20025;-50
2023/01/27 00:06:49;;;;;;;41.05;15.90;;;0.90;99.90;;;;;;5067511;28;20036;-50
2023/01/27 00:09:35;;;;;;;32.22;15.25;;;0.90;99.90;;;;;;5069087;28;20028;-50
2023/01/27 00:15:32;;;;;;;36.22;15.18;;;0.90;99.90;;;;;;5050054;28;20025;-49
2023/01/27 00:18:18;;;;;;;35.95;13.85;;;0.90;99.90;;;;;;5056954;28;20134;-55
2023/01/27 00:27:16;;;;;;;32.13;15.80;;;0.90;99.90;;;;;;5070407;28;20037;-49
2023/01/27 00:30:03;;;;;;;36.03;15.93;;;0.80;99.90;;;;;;5068240;28;20108;-49
2023/01/27 00:36:03;;;;;;;29.77;13.63;;;0.90;99.90;;;;;;5073698;28;20542;-51
2023/01/27 00:38:49;;;;;;;39.13;15.00;;;0.80;99.90;;;;;;5060637;28;20024;-50
2023/01/27 00:41:35;;;;;;;34.20;14.63;;;0.70;99.90;;;;;;5072125;28;20044;-51
2023/01/27 00:44:22;;;;;;;37.63;16.70;;;0.70;99.90;;;;;;5072640;28;20025;-51
2023/01/27 00:47:08;;;;;;;33.58;15.63;;;0.70;99.90;;;;;;5064420;28;20472;-47
2023/01/27 00:49:54;;;;;;;42.10;14.65;;;0.80;99.90;;;;;;5057484;28;20020;-50
2023/01/27 00:52:40;;;;;;;34.88;14.48;;;0.70;99.90;;;;;;5072454;28;20114;-49
2023/01/27 00:55:26;;;;;;;39.13;15.75;;;0.70;99.90;;;;;;5073824;28;20039;-51
2023/01/27 00:58:12;;;;;;;34.50;15.15;;;0.80;99.90;;;;;;5072713;28;20032;-48
2023/01/27 01:01:00;;;;;;;33.83;15.55;;;0.80;99.90;;;;;;5072269;28;20032;-51
2023/01/27 01:03:46;;;;;;;34.60;15.90;;;0.80;99.90;;;;;;5071473;28;20113;-50
2023/01/27 01:06:32;;;;;;;36.08;15.15;;;1.00;99.90;;;;;;5072138;28;20033;-52
2023/01/27 01:09:18;;;;;;;32.22;15.32;;;0.90;99.90;;;;;;5072216;28;20021;-52
2023/01/27 01:12:04;;;;;;;38.00;16.95;;;0.90;99.90;;;;;;5072641;28;20127;-52
2023/01/27 01:14:50;;;;;;;40.78;16.77;;;0.90;99.90;;;;;;5073324;28;20090;-52
2023/01/27 01:17:36;;;;;;;38.85;16.45;;;0.90;99.90;;;;;;5073083;28;20024;-49
2023/01/27 01:20:23;;;;;;;39.75;18.55;;;0.90;99.90;;;;;;5071699;28;20568;-52
2023/01/27 01:23:10;;;;;;;49.53;20.65;;;0.90;99.90;;;;;;5071424;28;20082;-51
2023/01/27 01:25:56;;;;;;;37.13;15.27;;;0.90;99.90;;;;;;5069855;28;20203;-54
2023/01/27 01:28:43;;;;;;;35.30;15.25;;;0.90;99.90;;;;;;5071166;28;20659;-52
2023/01/27 01:31:29;;;;;;;41.58;16.45;;;0.90;99.90;;;;;;5061360;28;20119;-48
2023/01/27 01:34:15;;;;;;;34.70;15.88;;;0.90;99.90;;;;;;5073849;28;20086;-49
2023/01/27 01:37:02;;;;;;;39.05;15.02;;;1.00;99.90;;;;;;5071876;28;20021;-52
2023/01/27 01:39:48;;;;;;;40.65;16.23;;;1.00;99.90;;;;;;5064929;28;20078;-49
2023/01/27 01:42:49;;;;;;;30.75;13.50;;;0.90;99.90;;;;;;5072710;28;20036;-50
2023/01/27 01:45:46;;;;;;;34.50;14.25;;;0.90;99.90;;;;;;5070857;28;20021;-53
2023/01/27 01:48:50;;;;;;;36.15;14.65;;;0.90;99.90;;;;;;5071555;28;20040;-51
2023/01/27 01:51:41;;;;;;;34.15;15.63;;;0.80;99.90;;;;;;5070379;28;20060;-53
2023/01/27 01:54:33;;;;;;;31.48;13.40;;;0.90;99.90;;;;;;5071074;28;20082;-49
2023/01/27 01:57:24;;;;;;;34.67;14.10;;;0.80;99.90;;;;;;5072872;28;20102;-50
2023/01/27 02:00:11;;;;;;;36.17;14.82;;;0.80;99.90;;;;;;5037830;28;20493;-48
2023/01/27 02:02:57;;;;;;;32.80;14.35;;;0.90;99.90;;;;;;5037355;28;20440;-49
2023/01/27 02:05:44;;;;;;;38.38;14.48;;;0.80;99.90;;;;;;5050935;28;20119;-50
2023/01/27 02:08:36;;;;;;;30.40;12.68;;;0.80;99.90;;;;;;5069304;28;20056;-52
2023/01/27 02:11:22;;;;;;;29.63;12.43;;;0.80;99.90;;;;;;5071605;28;20024;-50
2023/01/27 02:14:12;;;;;;;31.73;12.43;;;0.80;99.90;;;;;;5070160;28;20047;-49
2023/01/27 02:16:58;;;;;;;29.05;13.23;;;0.80;99.90;;;;;;5070933;28;20555;-49
2023/01/27 02:20:11;;;;;;;33.40;12.35;;;0.70;99.90;;;;;;5070860;28;20040;-49
2023/01/27 02:23:15;;;;;;;26.73;12.88;;;0.80;99.90;;;;;;5056262;28;20021;-51
2023/01/27 02:26:16;;;;;;;29.92;12.27;;;0.80;99.90;;;;;;5070885;28;20027;-48
2023/01/27 02:29:08;;;;;;;28.08;13.85;;;0.80;99.90;;;;;;5064358;28;20107;-47
2023/01/27 02:31:54;;;;;;;28.23;12.32;;;0.80;99.90;;;;;;5069993;28;20028;-50
2023/01/27 02:34:40;;;;;;;28.83;12.13;;;0.70;99.90;;;;;;5061080;28;20059;-52
2023/01/27 02:37:28;;;;;;;28.63;13.23;;;0.70;99.90;;;;;;5069971;28;20028;-49
2023/01/27 02:40:15;;;;;;;29.20;12.95;;;0.70;99.90;;;;;;5069976;28;20039;-48
2023/01/27 02:43:03;;;;;;;26.02;12.05;;;0.70;99.90;;;;;;5070906;28;20029;-47
2023/01/27 02:45:49;;;;;;;27.33;11.45;;;0.70;99.90;;;;;;5071747;28;20035;-50
2023/01/27 02:48:35;;;;;;;28.42;12.40;;;0.80;99.90;;;;;;5071905;28;20052;-52
2023/01/27 02:51:22;;;;;;;27.27;12.77;;;0.80;99.90;;;;;;5071929;28;20025;-51
2023/01/27 02:54:08;;;;;;;30.10;12.95;;;0.80;99.90;;;;;;5071234;28;20036;-47
2023/01/27 02:56:53;;;;;;;24.73;11.70;;;0.70;99.90;;;;;;5070083;28;20424;-50
2023/01/27 02:59:39;;;;;;;29.35;12.38;;;0.80;99.90;;;;;;5069055;28;20024;-48
2023/01/27 03:02:29;;;;;;;28.17;11.88;;;0.80;99.90;;;;;;5069804;28;20089;-49
2023/01/27 03:05:15;;;;;;;30.25;12.73;;;0.80;99.90;;;;;;5069176;28;20111;-49
2023/01/27 03:08:01;;;;;;;29.05;12.70;;;0.80;99.90;;;;;;5070539;28;20031;-49
2023/01/27 03:10:52;;;;;;;28.23;12.30;;;0.90;99.90;;;;;;5070311;28;20052;-52
2023/01/27 03:13:38;;;;;;;32.55;12.52;;;0.90;99.90;;;;;;5070579;28;20016;-51
2023/01/27 03:19:28;;;;;;;25.55;12.50;;;0.90;99.90;;;;;;5071617;28;20028;-46
2023/01/27 03:22:14;;;;;;;26.45;12.15;;;0.90;99.90;;;;;;5069777;28;20072;-47
2023/01/27 03:25:00;;;;;;;29.90;13.73;;;1.00;99.90;;;;;;5068761;28;20040;-49
2023/01/27 03:27:46;;;;;;;27.60;12.68;;;0.90;99.90;;;;;;5070036;28;20024;-52
2023/01/27 03:30:33;;;;;;;29.33;12.13;;;0.90;99.90;;;;;;5069712;28;20116;-48
2023/01/27 03:33:19;;;;;;;26.33;11.95;;;0.90;99.90;;;;;;5065535;28;20041;-47
2023/01/27 03:48:23;;;;;;;28.95;14.32;;;1.00;99.90;;;;;;5069967;28;20082;-53
2023/01/27 03:51:09;;;;;;;22.27;10.93;;;1.00;99.90;;;;;;5070317;28;20508;-51
2023/01/27 03:53:55;;;;;;;22.25;11.07;;;0.90;99.90;;;;;;5064220;28;20107;-47
2023/01/27 03:56:41;;;;;;;22.15;10.20;;;1.00;99.90;;;;;;5068648;28;20524;-51
2023/01/27 03:59:27;;;;;;;20.98;9.88;;;1.00;99.90;;;;;;5069769;28;20106;-50
2023/01/27 04:08:22;;;;;;;25.30;11.23;;;1.00;99.90;;;;;;5072373;28;20497;-49
2023/01/27 04:14:13;;;;;;;22.15;9.80;;;1.10;99.90;;;;;;5074835;28;20036;-47
2023/01/27 04:17:02;;;;;;;25.02;11.18;;;1.10;99.90;;;;;;5073560;28;20059;-52
2023/01/27 04:19:47;;;;;;;23.30;11.77;;;1.10;99.90;;;;;;5073067;28;20396;-49
2023/01/27 04:22:34;;;;;;;24.48;11.90;;;1.10;99.90;;;;;;5072601;28;20522;-54
2023/01/27 04:25:19;;;;;;;22.98;10.52;;;1.20;99.90;;;;;;5074230;28;20116;-52
2023/01/27 04:28:05;;;;;;;27.67;12.00;;;1.20;99.90;;;;;;5073191;28;20051;-53
2023/01/27 04:30:51;;;;;;;21.45;11.48;;;1.10;99.90;;;;;;5058833;28;20033;-49
2023/01/27 04:33:37;;;;;;;21.40;11.23;;;1.10;99.90;;;;;;5073687;28;20058;-50
2023/01/27 04:36:23;;;;;;;22.98;10.70;;;1.20;99.90;;;;;;5072736;28;20682;-50
2023/01/27 04:39:10;;;;;;;21.38;11.13;;;1.20;99.90;;;;;;5073140;28;20047;-46
2023/01/27 04:41:56;;;;;;;23.58;12.90;;;1.20;99.90;;;;;;5074088;28;20039;-50
2023/01/27 04:44:42;;;;;;;20.48;10.55;;;1.20;99.90;;;;;;5073968;28;20106;-54
2023/01/27 04:47:28;;;;;;;24.13;11.35;;;1.20;99.90;;;;;;5072659;28;20048;-54
2023/01/27 04:50:14;;;;;;;21.58;11.05;;;1.10;99.90;;;;;;5073006;28;20033;-46
2023/01/27 04:53:00;;;;;;;21.52;10.65;;;1.00;99.90;;;;;;5073958;28;20092;-45
2023/01/27 04:55:48;;;;;;;22.10;10.95;;;1.00;99.90;;;;;;5053762;28;20397;-44
2023/01/27 04:58:34;;;;;;;23.25;12.23;;;1.10;99.90;;;;;;5056355;28;20035;-44
2023/01/27 05:01:20;;;;;;;22.35;11.85;;;1.20;99.90;;;;;;5071417;28;20028;-44
2023/01/27 05:04:06;;;;;;;21.88;11.13;;;1.10;99.90;;;;;;5072983;28;20017;-50
2023/01/27 05:06:52;;;;;;;21.77;11.10;;;1.10;99.90;;;;;;5072026;28;20489;-51
2023/01/27 05:09:38;;;;;;;21.13;11.05;;;1.10;99.90;;;;;;5071849;28;20548;-48
2023/01/27 05:12:24;;;;;;;19.70;11.30;;;1.10;99.90;;;;;;5071613;28;20028;-47
2023/01/27 05:15:10;;;;;;;22.30;12.73;;;1.10;99.90;;;;;;5072278;28;20090;-44
2023/01/27 05:17:56;;;;;;;20.63;11.10;;;1.20;99.90;;;;;;5072241;28;20041;-43
2023/01/27 05:20:42;;;;;;;17.15;10.48;;;1.20;99.90;;;;;;5071113;28;20127;-46
2023/01/27 05:23:34;;;;;;;22.05;11.65;;;1.20;99.90;;;;;;5072675;28;20031;-46
2023/01/27 05:26:22;;;;;;;22.80;12.65;;;1.20;99.90;;;;;;5071648;28;20062;-47
2023/01/27 05:29:08;;;;;;;19.52;11.95;;;1.20;99.90;;;;;;5071330;28;20021;-46
2023/01/27 05:31:54;;;;;;;19.50;11.13;;;1.20;99.90;;;;;;5072464;28;20036;-51
2023/01/27 05:34:40;;;;;;;21.17;11.18;;;1.20;99.90;;;;;;5070817;28;20028;-51
2023/01/27 05:37:26;;;;;;;18.73;10.77;;;1.20;99.90;;;;;;5072182;28;20526;-48
2023/01/27 05:40:12;;;;;;;20.83;11.63;;;1.20;99.90;;;;;;5071130;28;20499;-50
2023/01/27 05:42:58;;;;;;;22.40;11.50;;;1.20;99.90;;;;;;5052688;28;20033;-52
2023/01/27 05:45:44;;;;;;;22.55;12.43;;;1.20;99.90;;;;;;5071018;28;20029;-52
2023/01/27 05:48:30;;;;;;;22.05;11.55;;;1.20;99.90;;;;;;5072216;28;20028;-52
2023/01/27 05:51:19;;;;;;;21.45;12.40;;;1.20;99.90;;;;;;5072073;28;20455;-48
2023/01/27 05:54:06;;;;;;;20.75;11.80;;;1.20;99.90;;;;;;5070965;28;20082;-46
2023/01/27 05:56:51;;;;;;;22.05;11.88;;;1.20;99.90;;;;;;5061031;28;20036;-45
2023/01/27 05:59:37;;;;;;;22.85;11.13;;;1.20;99.90;;;;;;5058012;28;20025;-46
2023/01/27 06:02:23;;;;;;;20.77;12.05;;;1.20;99.90;;;;;;5072021;28;20036;-47
2023/01/27 06:05:09;;;;;;;20.70;12.20;;;1.10;99.90;;;;;;5071725;28;20028;-50
2023/01/27 06:07:55;;;;;;;20.33;12.30;;;1.10;99.90;;;;;;5072492;28;20050;-52
2023/01/27 06:10:41;;;;;;;20.40;11.55;;;1.10;99.90;;;;;;5072389;28;20546;-53
2023/01/27 06:13:27;;;;;;;22.15;12.55;;;1.10;99.90;;;;;;5072942;28;20650;-45
2023/01/27 06:16:18;;;;;;;24.23;12.38;;;1.10;99.90;;;;;;5073082;28;20024;-50
2023/01/27 06:19:04;;;;;;;23.77;12.52;;;1.10;99.90;;;;;;5071443;28;20028;-46
2023/01/27 06:21:50;;;;;;;23.67;12.25;;;1.10;99.90;;;;;;5058870;28;20036;-52
2023/01/27 06:24:36;;;;;;;27.58;14.98;;;1.20;99.90;;;;;;5074698;28;20071;-59
2023/01/27 06:27:22;;;;;;;28.13;14.27;;;1.20;99.90;;;;;;5080645;28;20112;-51
2023/01/27 06:30:08;;;;;;;24.52;14.23;;;1.30;99.90;;;;;;5079882;28;20020;-54
2023/01/27 06:32:55;;;;;;;27.45;14.45;;;1.30;99.90;;;;;;5078886;28;20097;-53
2023/01/27 06:35:41;;;;;;;25.67;13.93;;;1.20;99.90;;;;;;5077832;28;20089;-50
2023/01/27 06:38:26;;;;;;;24.00;13.20;;;1.20;99.90;;;;;;5080946;28;20025;-50
2023/01/27 06:41:13;;;;;;;27.30;13.98;;;1.30;99.90;;;;;;5080852;28;20033;-48
2023/01/27 06:43:59;;;;;;;24.30;14.15;;;1.20;99.90;;;;;;5075229;28;20074;-50
2023/01/27 06:46:45;;;;;;;27.58;13.43;;;1.20;99.90;;;;;;5067730;28;20059;-45
2023/01/27 06:49:30;;;;;;;26.27;13.05;;;1.10;99.90;;;;;;5071312;28;20106;-50
2023/01/27 06:52:16;;;;;;;28.02;13.20;;;1.10;99.90;;;;;;5051041;28;20446;-51
2023/01/27 06:55:03;;;;;;;27.98;12.93;;;1.20;99.90;;;;;;5067696;28;20062;-46
2023/01/27 06:57:50;;;;;;;24.48;12.25;;;1.20;99.90;;;;;;5071020;28;20028;-53
2023/01/27 07:00:37;;;;;;;24.15;12.70;;;1.10;99.90;;;;;;5057755;28;20064;-47
2023/01/27 07:03:24;;;;;;;25.55;13.32;;;1.30;99.90;;;;;;5070550;28;20436;-52
2023/01/27 07:06:10;;;;;;;31.83;14.38;;;1.20;99.90;;;;;;5070771;28;20059;-58
2023/01/27 07:08:55;;;;;;;28.83;13.32;;;1.10;99.90;;;;;;5071044;28;20028;-46
2023/01/27 07:11:41;;;;;;;29.55;13.23;;;1.20;99.90;;;;;;5069816;28;20028;-48
2023/01/27 07:14:27;;;;;;;30.60;13.15;;;1.20;99.90;;;;;;5070447;28;20389;-48
2023/01/27 07:17:13;;;;;;;26.02;13.10;;;1.20;99.90;;;;;;5069653;28;20443;-51
2023/01/27 07:19:59;;;;;;;26.42;12.73;;;1.20;99.90;;;;;;5071425;28;20657;-44
2023/01/27 07:22:45;;;;;;;27.95;11.70;;;1.30;99.90;;;;;;5065166;28;20127;-44
2023/01/27 07:25:33;;;;;;;25.33;12.48;;;1.20;99.90;;;;;;5051025;28;20378;-44
2023/01/27 07:28:19;;;;;;;21.48;10.25;;;1.30;99.90;;;;;;5055718;28;20024;-47
2023/01/27 07:31:05;;;;;;;18.42;10.40;;;1.30;99.90;;;;;;5073679;28;20032;-53
2023/01/27 07:33:52;;;;;;;22.13;11.07;;;1.30;99.90;;;;;;5048370;28;20503;-51
2023/01/27 07:36:38;;;;;;;21.55;10.77;;;1.30;99.90;;;;;;5073460;28;20047;-45
2023/01/27 07:39:25;;;;;;;20.67;10.85;;;1.30;99.90;;;;;;5068715;28;20127;-46
2023/01/27 07:42:11;;;;;;;19.90;9.85;;;1.30;99.90;;;;;;5071004;28;20020;-48
2023/01/27 07:44:57;;;;;;;20.02;9.95;;;1.30;99.90;;;;;;5070395;28;20036;-47
2023/01/27 07:47:43;;;;;;;15.90;9.32;;;1.30;99.90;;;;;;5070381;28;20029;-52
2023/01/27 07:50:29;;;;;;;15.32;9.32;;;1.30;99.90;;;;;;5069534;28;20481;-53
2023/01/27 07:53:15;;;;;;;16.65;9.13;;;1.20;99.90;;;;;;5068935;28;20033;-51
2023/01/27 07:56:01;;;;;;;17.02;9.75;;;1.30;99.90;;;;;;5070353;28;20478;-53
2023/01/27 07:58:47;;;;;;;12.48;7.82;;;1.30;99.90;;;;;;5069587;28;20108;-52
2023/01/27 08:01:33;;;;;;;13.73;7.90;;;1.30;99.90;;;;;;5070851;28;20052;-53
2023/01/27 08:04:19;;;;;;;15.50;9.10;;;1.30;99.90;;;;;;5070906;28;20033;-46
2023/01/27 08:07:05;;;;;;;18.98;8.55;;;1.30;99.90;;;;;;5036838;28;20056;-48
2023/01/27 08:09:53;;;;;;;14.25;7.75;;;1.40;99.90;;;;;;5065659;28;20024;-45
2023/01/27 08:12:39;;;;;;;13.95;7.90;;;1.40;99.90;;;;;;5062107;28;20408;-44
2023/01/27 08:15:25;;;;;;;15.30;8.25;;;1.40;99.90;;;;;;5057243;28;20029;-46
2023/01/27 08:18:20;;;;;;;15.15;9.32;;;1.50;99.90;;;;;;5075953;28;20036;-53
2023/01/27 08:21:11;;;;;;;14.80;8.82;;;1.60;99.90;;;;;;4991930;28;20117;-73
2023/01/27 08:23:59;;;;;;;16.42;9.23;;;1.60;99.90;;;;;;4992285;28;20049;-73
2023/01/27 08:26:45;;;;;;;14.45;8.68;;;1.50;99.90;;;;;;5009120;28;20036;-74
2023/01/27 08:29:32;;;;;;;14.60;9.13;;;1.70;99.90;;;;;;5009662;28;20426;-73
2023/01/27 08:32:18;;;;;;;15.93;9.73;;;1.70;99.90;;;;;;5001974;28;20026;-75
2023/01/27 08:35:04;;;;;;;16.25;9.38;;;1.80;99.90;;;;;;5005374;28;20506;-73
2023/01/27 08:37:50;;;;;;;15.68;9.60;;;1.70;99.90;;;;;;4999409;28;20104;-73
2023/01/27 08:40:38;;;;;;;16.25;10.60;;;1.70;99.90;;;;;;5002915;28;20052;-73
2023/01/27 08:43:24;;;;;;;13.65;8.65;;;1.70;99.90;;;;;;5002612;28;20014;-76
2023/01/27 08:46:11;;;;;;;12.23;7.95;;;1.70;99.90;;;;;;4985191;28;20049;-74
2023/01/27 08:48:56;;;;;;;13.68;8.10;;;1.70;99.90;;;;;;5011732;28;20053;-75
2023/01/27 08:51:42;;;;;;;13.50;7.53;;;1.70;99.90;;;;;;5011449;28;20026;-76
2023/01/27 08:54:28;;;;;;;12.18;6.95;;;1.90;99.90;;;;;;4999536;28;20073;-75
2023/01/27 08:57:14;;;;;;;12.68;8.18;;;1.70;99.90;;;;;;5010143;28;20437;-75
2023/01/27 09:00:00;;;;;;;13.68;7.45;;;1.80;99.90;;;;;;5014139;28;20034;-74
2023/01/27 09:02:47;;;;;;;12.45;7.50;;;1.80;99.90;;;;;;5014697;28;20466;-75
2023/01/27 09:05:35;;;;;;;11.25;7.10;;;1.80;99.90;;;;;;5013781;28;20018;-74
2023/01/27 09:08:21;;;;;;;13.40;7.05;;;1.80;99.90;;;;;;5027384;28;20026;-74
2023/01/27 09:11:15;;;;;;;10.80;6.57;;;1.90;99.90;;;;;;5027106;28;20029;-77
2023/01/27 09:14:01;;;;;;;9.18;6.32;;;1.90;99.90;;;;;;5013093;28;20048;-73
2023/01/27 09:16:47;;;;;;;12.32;7.47;;;2.00;99.90;;;;;;4981162;28;20562;-74
2023/01/27 09:19:33;;;;;;;13.02;6.72;;;2.00;99.90;;;;;;5008852;28;20045;-74
2023/01/27 09:22:19;;;;;;;11.82;7.82;;;2.00;99.90;;;;;;5015346;28;20032;-74
2023/01/27 09:25:14;;;;;;;10.38;6.15;;;2.00;99.90;;;;;;5008563;28;20110;-75
2023/01/27 09:28:16;;;;;;;10.13;6.57;;;2.00;99.90;;;;;;5008320;28;20497;-75
2023/01/27 09:31:02;;;;;;;11.27;7.15;;;2.00;99.90;;;;;;5014577;28;20042;-74
2023/01/27 09:33:47;;;;;;;12.15;7.38;;;1.90;99.90;;;;;;5009299;28;20040;-74
2023/01/27 09:36:40;;;;;;;15.50;7.93;;;1.90;99.90;;;;;;4998285;28;20026;-74
2023/01/27 09:39:28;;;;;;;12.38;7.40;;;1.80;99.90;;;;;;5003524;28;20036;-75
2023/01/27 09:42:49;;;;;;;9.27;6.38;;;2.10;99.90;;;;;;5023712;28;20101;-76
2023/01/27 09:45:57;;;;;;;11.43;7.72;;;2.10;99.90;;;;;;5006485;28;20026;-76
2023/01/27 09:49:12;;;;;;;11.98;7.60;;;2.10;99.90;;;;;;5012167;28;20013;-75
2023/01/27 09:52:19;;;;;;;11.70;7.30;;;2.10;99.90;;;;;;5013439;28;20041;-76
2023/01/27 09:55:26;;;;;;;12.20;7.55;;;2.10;99.90;;;;;;5022469;28;20656;-76
2023/01/27 09:58:30;;;;;;;11.07;6.78;;;2.00;99.90;;;;;;5007297;28;20355;-78
2023/01/27 10:01:40;;;;;;;12.77;7.32;;;2.00;99.90;;;;;;5025738;28;20022;-77
2023/01/27 10:04:51;;;;;;;10.90;6.72;;;2.00;99.90;;;;;;5012488;28;20018;-77
2023/01/27 10:07:49;;;;;;;14.48;9.02;;;2.00;99.90;;;;;;5013388;28;20407;-76
2023/01/27 10:11:08;;;;;;;11.50;7.20;;;2.00;99.90;;;;;;5013907;28;20480;-76
2023/01/27 10:14:09;;;;;;;14.80;7.75;;;1.90;99.90;;;;;;5027830;28;20021;-74
2023/01/27 10:17:33;;;;;;;9.88;6.53;;;1.90;99.90;;;;;;5015596;28;20021;-75
2023/01/27 10:20:51;;;;;;;15.10;7.95;;;1.90;99.90;;;;;;4935066;29;20551;-77
2023/01/27 10:24:19;;;;;;;12.73;7.82;;;1.90;99.90;;;;;;4923130;29;20024;-77
2023/01/27 10:27:22;;;;;;;12.93;7.78;;;1.90;99.90;;;;;;5013772;28;20076;-75
2023/01/27 10:30:08;;;;;;;11.68;7.68;;;1.90;99.90;;;;;;5015044;28;20033;-75
2023/01/27 10:33:03;;;;;;;12.60;8.10;;;2.00;99.90;;;;;;5014778;28;20053;-76
2023/01/27 10:36:03;;;;;;;12.35;7.65;;;2.00;99.90;;;;;;5018204;28;20030;-75
2023/01/27 10:39:21;;;;;;;13.13;8.32;;;2.10;99.90;;;;;;5027622;28;20497;-74
2023/01/27 10:42:32;;;;;;;14.88;8.98;;;2.20;99.90;;;;;;5016212;28;20033;-75
2023/01/27 10:45:39;;;;;;;15.18;8.95;;;2.30;99.90;;;;;;5017802;28;20017;-74
2023/01/27 10:48:44;;;;;;;13.73;8.52;;;2.30;99.90;;;;;;5009334;28;20525;-75
2023/01/27 10:51:36;;;;;;;12.85;8.70;;;2.40;99.90;;;;;;5014757;28;20030;-75
2023/01/27 10:54:52;;;;;;;13.15;8.93;;;2.40;99.90;;;;;;5016578;28;20033;-74
2023/01/27 10:58:01;;;;;;;14.20;10.10;;;2.40;99.90;;;;;;5013530;28;20026;-75
2023/01/27 11:00:52;;;;;;;15.60;10.30;;;2.40;99.90;;;;;;5009612;28;20026;-73
2023/01/27 11:03:56;;;;;;;13.63;8.82;;;2.40;99.90;;;;;;5025466;28;20022;-73
2023/01/27 11:06:45;;;;;;;13.45;9.15;;;2.50;99.90;;;;;;4992739;28;20097;-74
2023/01/27 11:09:42;;;;;;;16.83;10.93;;;2.50;99.90;;;;;;5007592;28;20030;-75
2023/01/27 11:12:38;;;;;;;14.43;10.70;;;2.60;99.90;;;;;;5048010;23;20069;-50
2023/01/27 11:15:26;;;;;;;15.43;10.90;;;2.50;99.90;;;;;;5039265;28;20025;-47
2023/01/27 11:18:22;;;;;;;19.63;11.38;;;2.50;99.90;;;;;;5049654;28;20023;-47
2023/01/27 11:21:20;;;;;;;17.95;11.80;;;2.50;99.90;;;;;;5030217;28;20029;-47
2023/01/27 11:24:32;;;;;;;18.13;12.70;;;2.50;99.90;;;;;;5035585;28;20091;-49
2023/01/27 11:27:48;;;;;;;16.95;12.00;;;2.50;99.90;;;;;;5030748;28;20029;-49
2023/01/27 11:31:04;;;;;;;17.13;11.65;;;2.50;99.90;;;;;;5010723;28;20048;-51
2023/01/27 11:34:12;;;;;;;17.23;11.60;;;2.50;99.90;;;;;;5028104;28;20037;-51
2023/01/27 11:36:59;;;;;;;16.40;12.00;;;2.40;99.90;;;;;;5022259;28;20033;-52
2023/01/27 11:39:45;;;;;;;18.73;12.70;;;2.50;99.90;;;;;;5015595;28;20045;-52
2023/01/27 11:42:34;;;;;;;18.25;12.50;;;2.60;99.90;;;;;;5016722;28;20309;-58
2023/01/27 11:45:20;;;;;;;20.05;13.00;;;2.70;99.90;;;;;;5030392;28;20044;-55
2023/01/27 11:48:10;;;;;;;16.98;12.48;;;2.60;99.90;;;;;;5030848;28;20025;-50
2023/01/27 11:50:56;;;;;;;16.63;11.82;;;2.60;99.90;;;;;;5031913;28;20029;-53
2023/01/27 11:53:43;;;;;;;16.40;12.13;;;2.50;99.90;;;;;;5029195;28;20510;-53
2023/01/27 11:56:32;;;;;;;19.58;12.27;;;2.60;99.90;;;;;;5016991;28;20030;-55
2023/01/27 11:59:24;;;;;;;16.88;12.27;;;2.50;99.90;;;;;;5014155;28;20036;-55
2023/01/27 12:02:35;;;;;;;17.80;11.63;;;2.60;99.90;;;;;;5012668;28;20041;-56
2023/01/27 12:05:29;;;;;;;14.38;10.45;;;2.60;99.90;;;;;;5046540;28;20044;-58
2023/01/27 12:08:45;;;;;;;14.77;10.75;;;2.60;99.90;;;;;;5026819;28;20421;-56
2023/01/27 12:11:31;;;;;;;15.20;10.20;;;2.70;99.90;;;;;;5031926;28;20409;-54
2023/01/27 12:14:17;;;;;;;12.93;9.70;;;2.70;99.90;;;;;;5025986;28;20057;-57
2023/01/27 12:17:06;;;;;;;13.77;9.40;;;2.70;99.90;;;;;;5032744;28;20056;-54
2023/01/27 12:19:56;;;;;;;11.43;9.43;;;2.80;99.90;;;;;;5031719;28;20092;-54
2023/01/27 12:22:48;;;;;;;12.18;9.30;;;2.90;99.90;;;;;;5017869;28;20026;-61
2023/01/27 12:25:47;;;;;;;12.63;9.23;;;2.80;99.90;;;;;;5030949;28;20078;-53
2023/01/27 12:28:50;;;;;;;12.32;9.07;;;2.90;99.90;;;;;;5026115;28;20026;-55
2023/01/27 12:31:46;;;;;;;11.90;8.98;;;3.00;99.90;;;;;;5035532;28;20322;-53
2023/01/27 12:34:36;;;;;;;10.43;8.10;;;3.00;99.90;;;;;;5015802;28;20030;-54
2023/01/27 12:37:30;;;;;;;12.32;8.90;;;2.90;99.90;;;;;;5015847;28;20030;-56
2023/01/27 12:40:24;;;;;;;11.27;8.73;;;2.90;99.90;;;;;;5022930;28;20025;-55
2023/01/27 12:43:13;;;;;;;11.27;8.52;;;2.80;99.90;;;;;;5035050;28;20079;-54
2023/01/27 12:46:07;;;;;;;9.43;7.18;;;2.90;99.90;;;;;;5033596;28;20021;-53
2023/01/27 12:49:09;;;;;;;11.25;7.70;;;2.90;99.90;;;;;;5025821;28;20168;-52
2023/01/27 12:51:55;;;;;;;8.40;6.80;;;2.90;99.90;;;;;;5038300;28;20086;-54
2023/01/27 12:54:41;;;;;;;9.98;6.90;;;2.90;99.90;;;;;;5053025;28;20025;-54
2023/01/27 12:57:31;;;;;;;11.27;7.28;;;2.90;99.90;;;;;;5035193;28;20029;-56
2023/01/27 13:00:17;;;;;;;10.23;6.88;;;2.90;99.90;;;;;;5033741;28;20437;-58
2023/01/27 13:03:09;;;;;;;7.75;5.97;;;2.90;99.90;;;;;;5040849;28;20074;-54
2023/01/27 13:05:58;;;;;;;7.80;5.88;;;3.00;99.90;;;;;;5035280;28;20075;-58
2023/01/27 13:08:46;;;;;;;10.45;7.32;;;3.00;99.90;;;;;;5034531;28;20049;-54
2023/01/27 13:11:39;;;;;;;10.82;6.50;;;3.00;99.90;;;;;;5031969;28;20033;-55
2023/01/27 13:14:28;;;;;;;9.38;6.88;;;3.00;99.90;;;;;;5015023;28;20036;-56
2023/01/27 13:17:47;;;;;;;8.35;7.00;;;3.10;99.90;;;;;;5019613;28;20025;-53
2023/01/27 13:20:43;;;;;;;8.45;6.38;;;3.10;99.90;;;;;;5034198;28;20494;-51
2023/01/27 13:23:33;;;;;;;9.77;6.43;;;3.10;99.90;;;;;;5033753;28;20112;-49
2023/01/27 13:26:27;;;;;;;9.18;7.43;;;3.10;99.90;;;;;;5033007;28;20026;-49
2023/01/27 13:29:30;;;;;;;9.70;7.38;;;3.10;99.90;;;;;;5013432;28;20026;-51
2023/01/27 13:32:23;;;;;;;10.68;7.80;;;3.20;99.90;;;;;;5022442;28;20054;-55
2023/01/27 13:35:29;;;;;;;12.32;8.48;;;3.10;99.90;;;;;;5013360;28;20061;-55
2023/01/27 13:38:27;;;;;;;12.00;8.77;;;3.10;99.90;;;;;;5012301;28;20457;-50
2023/01/27 13:41:21;;;;;;;12.98;9.02;;;3.10;99.90;;;;;;5021043;28;20474;-52
2023/01/27 13:44:41;;;;;;;12.90;8.88;;;3.20;99.90;;;;;;5032956;28;20033;-56
2023/01/27 13:47:44;;;;;;;10.23;7.95;;;3.20;99.90;;;;;;5025573;28;20036;-51
2023/01/27 13:50:41;;;;;;;11.80;9.15;;;3.10;99.90;;;;;;5014140;28;20080;-53
2023/01/27 13:53:27;;;;;;;11.80;9.10;;;3.10;99.90;;;;;;5012756;28;20498;-51
2023/01/27 13:56:19;;;;;;;13.80;9.85;;;3.10;99.90;;;;;;5018410;28;20029;-49
2023/01/27 13:59:24;;;;;;;12.45;9.38;;;3.20;99.90;;;;;;5032017;28;20026;-51
2023/01/27 14:02:28;;;;;;;12.57;8.73;;;3.10;99.90;;;;;;5038259;28;20022;-52
2023/01/27 14:05:43;;;;;;;13.23;9.55;;;3.10;99.90;;;;;;5014222;28;20048;-54
2023/01/27 14:08:53;;;;;;;13.25;9.40;;;3.20;99.90;;;;;;5043124;28;20052;-53
2023/01/27 14:12:03;;;;;;;12.65;8.50;;;3.20;99.90;;;;;;5042950;28;20071;-56
2023/01/27 14:14:55;;;;;;;11.60;8.95;;;3.20;99.90;;;;;;5033356;28;20026;-52
2023/01/27 14:17:58;;;;;;;14.38;9.68;;;3.20;99.90;;;;;;5031078;28;20026;-55
2023/01/27 14:20:59;;;;;;;14.75;9.25;;;3.30;99.90;;;;;;5031432;28;20033;-54
2023/01/27 14:24:19;;;;;;;19.85;10.07;;;3.30;99.90;;;;;;5031077;28;20099;-51
2023/01/27 14:27:09;;;;;;;21.45;11.57;;;3.30;99.90;;;;;;5031599;28;20028;-55
2023/01/27 14:30:20;;;;;;;15.98;10.32;;;3.40;99.90;;;;;;5021331;28;20406;-54
2023/01/27 14:33:51;;;;;;;15.73;10.35;;;3.30;99.90;;;;;;5032286;28;20033;-52
2023/01/27 14:36:54;;;;;;;14.10;9.48;;;3.30;99.90;;;;;;4942169;29;20028;-52
2023/01/27 14:39:55;;;;;;;16.00;9.63;;;3.30;99.90;;;;;;5014111;28;20030;-54
2023/01/27 14:42:51;;;;;;;14.10;9.45;;;3.30;99.90;;;;;;5006004;28;20030;-53
2023/01/27 14:45:43;;;;;;;13.73;9.57;;;3.40;99.90;;;;;;5023938;28;20078;-54
2023/01/27 14:48:50;;;;;;;13.18;9.85;;;3.40;99.90;;;;;;5034165;28;20029;-54
2023/01/27 14:51:52;;;;;;;14.23;9.43;;;3.30;99.90;;;;;;5016006;28;20105;-58
2023/01/27 14:55:02;;;;;;;12.45;9.20;;;3.40;99.90;;;;;;5026728;28;20030;-51
2023/01/27 14:58:00;;;;;;;14.38;9.48;;;3.40;99.90;;;;;;5014442;28;20029;-53
2023/01/27 15:01:11;;;;;;;13.27;9.30;;;3.40;99.90;;;;;;5029879;28;20032;-57
2023/01/27 15:04:21;;;;;;;13.02;9.88;;;3.40;99.90;;;;;;5040475;28;20021;-52
2023/01/27 15:07:20;;;;;;;14.77;10.23;;;3.40;99.90;;;;;;5011955;28;20405;-53
2023/01/27 15:10:20;;;;;;;14.90;11.13;;;3.30;99.90;;;;;;5015860;28;20452;-52
2023/01/27 15:13:21;;;;;;;15.65;11.20;;;3.30;99.90;;;;;;5031460;28;20044;-55
2023/01/27 15:16:48;;;;;;;14.50;11.15;;;3.90;99.90;;;;;;5031798;28;20025;-53
2023/01/27 15:19:43;;;;;;;23.45;11.80;;;4.20;99.90;;;;;;4955612;28;20719;-55
2023/01/27 15:23:04;;;;;;;14.25;10.55;;;4.50;99.90;;;;;;5008724;28;20037;-55
2023/01/27 15:26:00;;;;;;;15.40;11.30;;;4.60;99.90;;;;;;4997528;28;20033;-52